Cotton Plant, Arkansas
Current Conditions -  °F | °C
As of 2:40 AM on Thursday 18 Dec 2014 (Local Time) from KSRC Reporting Station
Light Rain Light Rain  
Wind Chill: -1°   Ceiling: 700
Heat Index:   Visibility: 10mi
Dew Point:   Wind: 7mph
Humidity: 100%   Direction: 80°E
Pressure: 30.26"   Gusts: NA
Location:  35.01°N, 91.25°W
Report Text: KSRC 180840Z AUTO 08006KT 10SM -RA BKN007 OVC055 02/02 A3026 RMK AO2 CIG 005V012 P0001 FZRANO TSNO
Loading
Personal Weather Stations






























Interactive Weather Map New forecast layout! Learn more

10-Day Weather Forecast

Advertisements
Track Severe Weather on mobile